Time;durP1;ratioP1;P1;durP2;ratioP2;P2;SDS_P1;SDS_P2;PMS_P1;PMS_P2;Temp;Humidity;BMP_temperature;BMP_pressure;BME280_temperature;BME280_humidity;BME280_pressure;Samples;Min_cycle;Max_cycle;Signal;HPM_P1;HPM_P2
2022/03/16 00:08:53;;;;;;;99.20;46.90;;;;;;;6.64;55.20;99033.04;432647;1271;112575;-41
2022/03/16 00:19:01;;;;;;;80.00;40.80;;;;;;;6.40;55.71;99022.15;432523;1269;108808;-43
2022/03/16 00:29:08;;;;;;;78.70;34.20;;;;;;;6.46;56.30;99025.83;432369;1273;99321;-41
2022/03/16 00:39:16;;;;;;;89.50;39.60;;;;;;;6.66;56.42;99025.52;432579;1271;112214;-42
2022/03/16 00:49:23;;;;;;;83.20;40.50;;;;;;;6.73;56.73;99023.63;432308;1273;109189;-41
2022/03/16 00:59:30;;;;;;;64.80;33.20;;;;;;;6.94;56.37;99017.16;432639;1271;99250;-42
2022/03/16 01:09:38;;;;;;;60.00;32.50;;;;;;;7.18;56.01;99020.28;432732;1269;112492;-40
2022/03/16 01:19:45;;;;;;;51.40;26.30;;;;;;;7.38;55.64;99025.20;432693;1271;108883;-44
2022/03/16 01:29:52;;;;;;;38.40;22.10;;;;;;;7.48;55.91;99020.84;432530;1271;99315;-41
2022/03/16 01:40:00;;;;;;;35.90;20.70;;;;;;;7.49;56.12;99016.26;432694;1273;112518;-42
2022/03/16 01:50:08;;;;;;;32.60;19.20;;;;;;;7.47;56.19;99007.92;432623;1271;109022;-40
2022/03/16 02:10:25;;;;;;;36.00;18.00;;;;;;;7.29;56.94;98981.34;432586;1271;108855;-40
2022/03/16 02:20:29;;;;;;;35.50;20.60;;;;;;;7.14;57.28;98975.61;432689;1270;99359;-40
2022/03/16 02:30:37;;;;;;;24.30;15.90;;;;;;;7.01;57.56;98958.42;433142;1261;112419;-40
2022/03/16 02:40:44;;;;;;;21.20;15.20;;;;;;;6.92;58.42;98933.24;432416;1270;108796;-40
2022/03/16 02:50:51;;;;;;;29.70;16.00;;;;;;;6.84;58.83;98901.44;432383;1270;99279;-43
2022/03/16 03:00:58;;;;;;;31.90;19.80;;;;;;;6.75;59.51;98886.54;432510;1269;109055;-43
2022/03/16 03:11:05;;;;;;;37.70;22.30;;;;;;;6.60;60.02;98901.81;433174;1270;98039;-41
2022/03/16 03:21:13;;;;;;;46.50;24.60;;;;;;;6.36;60.33;98916.88;432684;1269;112375;-41
2022/03/16 03:31:20;;;;;;;38.20;22.30;;;;;;;6.16;60.79;98938.42;432423;1269;108835;-41
2022/03/16 03:41:28;;;;;;;39.20;23.60;;;;;;;5.98;61.34;98955.05;432476;1270;99247;-42
2022/03/16 03:51:35;;;;;;;29.30;19.00;;;;;;;5.96;61.65;98968.91;432730;1270;112328;-41
2022/03/16 04:01:42;;;;;;;35.50;23.30;;;;;;;5.97;63.07;98979.11;432504;1270;108469;-41
2022/03/16 04:11:50;;;;;;;49.10;27.80;;;;;;;5.85;63.79;98978.81;433079;1270;99269;-42
2022/03/16 04:21:57;;;;;;;54.30;30.60;;;;;;;5.73;63.08;98986.16;432544;1271;108852;-40
2022/03/16 04:32:05;;;;;;;33.50;22.10;;;;;;;5.63;63.02;98968.86;432846;1270;99285;-41
2022/03/16 04:42:12;;;;;;;42.50;23.70;;;;;;;5.61;62.88;98972.08;432546;1269;112398;-41
2022/03/16 04:52:20;;;;;;;56.00;31.90;;;;;;;5.55;63.03;98984.52;432404;1270;108980;-41
2022/03/16 05:02:27;;;;;;;77.40;38.10;;;;;;;5.36;62.97;98974.08;432903;1270;99293;-41
2022/03/16 05:12:37;;;;;;;86.40;44.10;;;;;;;5.04;63.08;98977.11;432715;1269;109078;-42
2022/03/16 05:22:42;;;;;;;99.40;48.00;;;;;;;4.83;63.49;98992.73;432629;1269;99187;-44
2022/03/16 05:32:52;;;;;;;97.10;48.70;;;;;;;4.75;63.83;99005.60;432468;1269;112446;-40
2022/03/16 05:43:00;;;;;;;84.10;46.10;;;;;;;4.70;63.94;98996.35;432602;1270;107458;-41
2022/03/16 05:53:07;;;;;;;51.50;30.40;;;;;;;4.78;64.01;99007.81;432937;1269;99266;-42
2022/03/16 06:03:14;;;;;;;69.80;38.30;;;;;;;5.05;64.34;99034.59;432477;1269;114270;-41
2022/03/16 06:13:23;;;;;;;79.50;39.70;;;;;;;5.43;64.65;99045.27;432721;1270;108913;-41
2022/03/16 06:33:36;;;;;;;71.70;38.30;;;;;;;6.47;64.14;99078.94;432448;1270;112517;-42
2022/03/16 06:43:44;;;;;;;75.50;41.20;;;;;;;6.79;64.24;99093.58;432549;1270;108883;-42
2022/03/16 06:53:51;;;;;;;84.30;32.60;;;;;;;7.37;64.23;99092.28;432389;1271;99313;-42
2022/03/16 07:03:58;;;;;;;64.10;36.90;;;;;;;8.13;63.96;99079.30;432723;1270;110829;-41
2022/03/16 07:24:31;;;;;;;86.40;45.90;;;;;;;8.46;63.29;99098.89;432486;1270;99935;-42
2022/03/16 07:34:39;;;;;;;103.00;49.50;;;;;;;8.60;63.00;99105.28;433068;1270;108800;-40
2022/03/16 07:44:49;;;;;;;90.80;46.50;;;;;;;8.63;62.48;99115.02;432433;1271;98736;-42
2022/03/16 08:05:01;;;;;;;71.40;42.00;;;;;;;8.47;61.98;99138.20;432496;1269;107789;-42
2022/03/16 08:15:06;;;;;;;70.90;44.50;;;;;;;8.51;61.59;99149.86;432525;1270;98831;-41
2022/03/16 08:25:14;;;;;;;72.00;43.20;;;;;;;8.61;60.74;99158.70;432473;1270;98032;-41
2022/03/16 08:35:22;;;;;;;74.20;40.00;;;;;;;8.54;60.36;99168.27;432965;1269;108879;-42
2022/03/16 08:45:28;;;;;;;70.70;41.90;;;;;;;9.06;59.45;99171.13;432544;1271;97957;-41
2022/03/16 08:55:37;;;;;;;67.30;40.00;;;;;;;9.19;58.71;99182.73;433267;1270;112544;-43
2022/03/16 09:05:44;;;;;;;62.40;40.00;;;;;;;9.68;58.00;99187.86;432340;1270;385176;-41
2022/03/16 09:15:52;;;;;;;63.10;37.10;;;;;;;9.92;56.61;99202.86;432671;1270;99260;-44
2022/03/16 09:25:59;;;;;;;52.80;36.10;;;;;;;10.22;54.98;99215.10;432790;1269;112448;-40
2022/03/16 09:36:08;;;;;;;54.20;32.70;;;;;;;10.32;53.61;99218.23;432637;1269;108981;-41
2022/03/16 09:46:22;;;;;;;51.20;31.40;;;;;;;10.93;52.59;99226.14;432849;1270;99375;-43
2022/03/16 09:56:30;;;;;;;53.30;32.10;;;;;;;11.24;50.76;99241.20;432645;1270;109083;-40
2022/03/16 10:06:37;;;;;;;51.30;34.20;;;;;;;11.03;49.66;99251.61;432753;1270;99259;-41
2022/03/16 10:27:07;;;;;;;50.60;31.70;;;;;;;11.13;49.17;99284.59;432543;1270;108845;-43
2022/03/16 10:37:18;;;;;;;45.60;30.00;;;;;;;10.67;48.39;99307.57;432752;1270;98646;-42
2022/03/16 10:47:26;;;;;;;48.50;30.60;;;;;;;10.46;47.20;99327.14;432756;1270;108913;-41
2022/03/16 10:57:34;;;;;;;52.50;31.50;;;;;;;10.70;47.52;99330.49;432672;1270;98062;-49
2022/03/16 11:07:41;;;;;;;46.90;31.80;;;;;;;11.03;46.44;99330.95;432801;1270;112301;-40
2022/03/16 11:17:48;;;;;;;52.40;31.50;;;;;;;11.31;46.28;99336.72;432672;1270;108692;-41
2022/03/16 11:27:58;;;;;;;54.20;35.40;;;;;;;11.49;45.68;99339.38;433192;1270;98066;-42
2022/03/16 11:38:09;;;;;;;46.30;30.90;;;;;;;11.65;45.69;99343.58;432603;1271;107598;-42
2022/03/16 11:48:53;;;;;;;51.50;32.20;;;;;;;11.92;44.77;99349.77;432349;1271;99256;-42
2022/03/16 11:59:02;;;;;;;48.20;30.30;;;;;;;11.89;43.62;99345.40;432747;1270;112451;-42
2022/03/16 12:09:18;;;;;;;47.50;29.20;;;;;;;11.73;42.98;99346.02;433141;1271;108883;-41
2022/03/16 12:29:36;;;;;;;52.60;30.30;;;;;;;11.66;42.69;99352.98;432601;1270;107755;-41
2022/03/16 12:39:45;;;;;;;39.80;26.20;;;;;;;11.74;42.39;99349.16;432471;1270;99273;-42
2022/03/16 12:49:54;;;;;;;44.60;27.60;;;;;;;11.93;41.60;99353.23;432749;1270;112626;-43
2022/03/16 13:00:05;;;;;;;44.40;28.80;;;;;;;12.16;41.32;99361.86;432447;1269;107814;-41
2022/03/16 13:10:13;;;;;;;40.60;25.20;;;;;;;12.27;41.05;99361.85;432436;1270;99292;-42
2022/03/16 13:30:28;;;;;;;38.10;24.70;;;;;;;12.37;40.08;99374.38;432413;1270;99241;-41
2022/03/16 13:51:00;;;;;;;34.60;23.30;;;;;;;12.38;39.00;99387.84;432725;1271;108873;-45
2022/03/16 14:01:08;;;;;;;31.00;20.40;;;;;;;12.29;38.28;99397.27;432590;1270;98344;-40
2022/03/16 14:11:31;;;;;;;31.70;19.80;;;;;;;12.32;38.42;99406.97;432582;1270;108902;-43
2022/03/16 14:21:38;;;;;;;33.60;20.10;;;;;;;12.37;39.19;99412.27;432314;1271;99322;-40
2022/03/16 14:31:46;;;;;;;29.00;20.30;;;;;;;12.41;38.82;99414.17;432436;1271;110639;-41
2022/03/16 14:41:54;;;;;;;35.20;20.20;;;;;;;12.35;38.46;99421.82;432314;1270;108873;-41
2022/03/16 14:52:03;;;;;;;29.30;19.50;;;;;;;12.29;38.08;99425.97;432783;1270;99939;-42
2022/03/16 15:02:10;;;;;;;30.50;18.70;;;;;;;12.24;37.46;99438.98;432827;1269;108824;-41
2022/03/16 15:22:25;;;;;;;32.20;20.60;;;;;;;12.07;38.15;99452.73;432859;1271;112676;-42
2022/03/16 15:32:32;;;;;;;32.60;21.50;;;;;;;11.97;37.97;99459.29;432716;1271;108937;-42
2022/03/16 15:52:55;;;;;;;33.50;21.20;;;;;;;11.66;38.57;99488.66;432435;1270;108938;-40
2022/03/16 16:33:23;;;;;;;34.30;22.10;;;;;;;10.72;39.82;99533.88;432662;1270;99254;-40
2022/03/16 16:43:31;;;;;;;55.90;31.50;;;;;;;10.43;40.36;99538.70;432510;1270;108946;-43
2022/03/16 16:53:39;;;;;;;40.60;27.60;;;;;;;10.10;40.82;99554.94;432419;1270;99279;-41
2022/03/16 17:13:52;;;;;;;58.50;33.60;;;;;;;9.28;41.70;99573.29;432953;1270;108640;-41
2022/03/16 17:23:59;;;;;;;85.60;44.80;;;;;;;8.78;42.29;99575.75;432975;1270;98071;-40
2022/03/16 17:34:09;;;;;;;97.30;43.60;;;;;;;8.39;43.08;99593.58;432777;1270;112542;-40
2022/03/16 17:54:41;;;;;;;109.30;50.10;;;;;;;7.35;44.31;99618.25;433207;1270;99342;-40
2022/03/16 18:04:48;;;;;;;105.30;53.30;;;;;;;6.95;44.93;99623.70;432941;1270;112448;-43
2022/03/16 18:14:56;;;;;;;141.50;60.30;;;;;;;6.57;45.56;99628.41;432469;1270;108325;-41
2022/03/16 18:25:03;;;;;;;124.20;55.30;;;;;;;6.17;46.20;99636.91;432457;1270;99272;-41
2022/03/16 18:35:12;;;;;;;124.00;54.70;;;;;;;5.86;46.79;99644.42;433059;1269;111627;-41
2022/03/16 18:45:25;;;;;;;128.00;58.60;;;;;;;5.60;47.50;99660.16;432462;1270;108817;-41
2022/03/16 18:55:32;;;;;;;116.90;55.20;;;;;;;5.32;48.19;99673.61;432494;1269;98543;-41
2022/03/16 19:15:47;;;;;;;148.30;58.90;;;;;;;4.89;49.18;99682.55;432639;1270;109152;-44
2022/03/16 19:25:55;;;;;;;131.80;59.20;;;;;;;4.69;49.64;99693.73;432668;1270;99267;-41
2022/03/16 19:36:09;;;;;;;154.50;65.20;;;;;;;4.61;50.06;99709.86;432619;1269;112476;-43
2022/03/16 19:46:16;;;;;;;129.40;60.70;;;;;;;4.27;50.68;99719.16;432596;1269;108819;-43
2022/03/16 19:56:25;;;;;;;115.20;55.10;;;;;;;4.08;51.00;99723.14;432387;1270;98000;-42
2022/03/16 20:06:33;;;;;;;95.30;47.30;;;;;;;4.18;51.47;99725.31;432624;1270;111525;-41
2022/03/16 20:16:43;;;;;;;78.60;39.10;;;;;;;4.55;51.39;99730.98;432547;1270;108802;-42
2022/03/16 20:26:51;;;;;;;77.80;37.70;;;;;;;4.86;51.24;99740.93;433274;1270;99251;-42
2022/03/16 20:36:59;;;;;;;118.20;44.80;;;;;;;5.03;50.99;99753.27;433069;1270;112390;-43
2022/03/16 20:47:06;;;;;;;72.40;36.50;;;;;;;5.17;50.95;99761.09;432488;1269;108842;-43
2022/03/16 20:57:14;;;;;;;74.30;38.10;;;;;;;5.17;50.90;99776.52;433256;1270;98031;-43
2022/03/16 21:07:23;;;;;;;92.80;45.40;;;;;;;4.98;50.89;99784.86;429966;1270;3502337;-42
2022/03/16 21:17:30;;;;;;;93.40;44.60;;;;;;;4.60;51.14;99802.38;432559;1270;108969;-41
2022/03/16 21:27:40;;;;;;;90.00;44.90;;;;;;;4.07;51.51;99805.41;432470;1270;99279;-41
2022/03/16 21:37:49;;;;;;;102.70;46.30;;;;;;;3.61;51.68;99804.37;432773;1270;112562;-41
2022/03/16 21:47:55;;;;;;;104.90;49.10;;;;;;;3.18;52.33;99810.08;432650;1270;108805;-41
2022/03/16 21:58:02;;;;;;;115.80;52.50;;;;;;;2.92;52.78;99811.98;432679;1270;99365;-41
2022/03/16 22:18:17;;;;;;;152.30;60.40;;;;;;;2.40;53.80;99827.20;432521;1270;106879;-42
2022/03/16 22:28:24;;;;;;;160.20;66.00;;;;;;;2.21;54.10;99825.78;432532;1269;99365;-43
2022/03/16 22:38:31;;;;;;;164.00;70.10;;;;;;;2.03;54.87;99838.95;432450;1270;112472;-42
2022/03/16 22:48:38;;;;;;;120.40;60.70;;;;;;;1.91;55.11;99846.92;432577;1271;108840;-43
2022/03/16 22:58:45;;;;;;;108.70;50.80;;;;;;;1.86;55.45;99851.65;432681;1270;99524;-41
2022/03/16 23:08:54;;;;;;;184.70;72.50;;;;;;;1.76;55.89;99866.88;432653;1270;109134;-43
2022/03/16 23:19:01;;;;;;;168.80;72.20;;;;;;;1.48;56.05;99877.27;432472;1269;98739;-42
2022/03/16 23:29:08;;;;;;;184.80;73.60;;;;;;;1.36;56.70;99892.11;432536;1270;112369;-42
2022/03/16 23:39:15;;;;;;;189.50;72.40;;;;;;;1.24;57.03;99887.48;432360;1270;108709;-41
2022/03/16 23:49:23;;;;;;;197.10;72.60;;;;;;;1.06;57.27;99894.52;432519;1269;99314;-43
2022/03/16 23:59:30;;;;;;;180.20;70.10;;;;;;;0.86;57.44;99905.69;432428;1269;112460;-43
